createdAt,value
2022-12-27T00:00:18.558Z,63.98
2022-12-27T00:03:06.618Z,63.76
2022-12-27T00:05:34.370Z,63.82
2022-12-27T00:08:02.402Z,63.65
2022-12-27T00:10:30.114Z,63.46
2022-12-27T00:12:58.201Z,63.44
2022-12-27T00:15:26.580Z,63.49
2022-12-27T00:17:54.513Z,63.12
2022-12-27T00:20:22.323Z,63.40
2022-12-27T00:22:50.365Z,63.09
2022-12-27T00:25:18.095Z,62.74
2022-12-27T00:27:46.036Z,62.77
2022-12-27T00:30:13.901Z,62.82
2022-12-27T00:32:41.923Z,62.99
2022-12-27T00:35:10.108Z,62.79
2022-12-27T00:37:37.982Z,62.63
2022-12-27T00:40:06.139Z,62.47
2022-12-27T00:42:34.158Z,62.49
2022-12-27T00:45:01.723Z,62.34
2022-12-27T00:47:29.642Z,62.15
2022-12-27T00:49:57.244Z,62.35
2022-12-27T00:52:25.154Z,61.98
2022-12-27T00:54:52.785Z,62.24
2022-12-27T00:57:21.566Z,61.67
2022-12-27T00:59:49.165Z,61.20
2022-12-27T01:02:17.161Z,61.31
2022-12-27T01:04:45.225Z,61.22
2022-12-27T01:07:13.201Z,61.22
2022-12-27T01:09:40.677Z,60.89
2022-12-27T01:12:08.587Z,60.97
2022-12-27T01:14:36.256Z,60.72
2022-12-27T01:17:04.181Z,60.45
2022-12-27T01:19:31.838Z,60.10
2022-12-27T01:21:59.720Z,60.05
2022-12-27T01:24:27.365Z,60.07
2022-12-27T01:26:55.298Z,59.72
2022-12-27T01:29:22.952Z,59.38
2022-12-27T01:31:51.491Z,59.59
2022-12-27T01:34:19.748Z,59.29
2022-12-27T01:36:47.724Z,59.53
2022-12-27T01:39:15.534Z,59.44
2022-12-27T01:42:03.886Z,59.19
2022-12-27T01:44:41.024Z,59.22
2022-12-27T01:48:10.964Z,59.10
2022-12-27T01:50:49.204Z,58.72
2022-12-27T01:53:25.739Z,58.55
2022-12-27T01:56:04.916Z,57.64
2022-12-27T01:58:50.166Z,57.95
2022-12-27T02:01:28.349Z,57.50
2022-12-27T02:04:15.822Z,57.99
2022-12-27T02:06:43.912Z,58.37
2022-12-27T02:09:11.805Z,58.04
2022-12-27T02:11:51.858Z,56.93
2022-12-27T02:14:47.149Z,56.60
2022-12-27T02:17:28.449Z,56.90
2022-12-27T02:20:18.897Z,56.60
2022-12-27T02:23:39.932Z,57.48
2022-12-27T02:26:45.078Z,57.17
2022-12-27T02:29:35.467Z,57.05
2022-12-27T02:32:12.208Z,57.25
2022-12-27T02:34:51.432Z,57.06
2022-12-27T02:37:21.473Z,57.12
2022-12-27T02:39:51.775Z,57.27
2022-12-27T02:42:39.385Z,57.49
2022-12-27T02:45:39.342Z,57.46
2022-12-27T02:48:33.575Z,56.87
2022-12-27T02:51:58.502Z,57.07
2022-12-27T02:55:14.027Z,57.38
2022-12-27T02:57:52.757Z,57.72
2022-12-27T03:00:43.315Z,57.00
2022-12-27T03:03:44.965Z,57.73
2022-12-27T03:06:52.469Z,57.89
2022-12-27T03:10:19.620Z,58.59
2022-12-27T03:13:45.573Z,58.44
2022-12-27T03:16:25.178Z,58.29
2022-12-27T03:19:12.774Z,58.99
2022-12-27T03:22:07.892Z,59.66
2022-12-27T03:24:59.221Z,60.35
2022-12-27T03:27:36.357Z,61.39
2022-12-27T03:30:28.356Z,61.72
2022-12-27T03:33:13.949Z,62.33
2022-12-27T03:36:11.058Z,62.47
2022-12-27T03:39:00.952Z,62.22
2022-12-27T03:41:55.068Z,62.65
2022-12-27T03:44:25.651Z,63.07
2022-12-27T03:47:48.377Z,63.14
2022-12-27T03:50:36.538Z,63.38
2022-12-27T03:53:21.558Z,63.84
2022-12-27T03:55:50.108Z,64.65
2022-12-27T03:58:18.078Z,65.40
2022-12-27T04:00:45.803Z,66.88
2022-12-27T04:03:13.919Z,67.61
2022-12-27T04:05:41.650Z,68.52
2022-12-27T04:08:28.386Z,68.34
2022-12-27T04:11:14.567Z,68.71
2022-12-27T04:14:01.034Z,69.57
2022-12-27T04:16:47.386Z,70.24
2022-12-27T04:19:33.953Z,70.73
2022-12-27T04:22:20.231Z,71.27
2022-12-27T04:25:07.108Z,71.65
2022-12-27T04:27:53.457Z,71.64
2022-12-27T04:30:40.110Z,72.72
2022-12-27T04:33:26.380Z,72.60
2022-12-27T04:35:54.484Z,72.64
2022-12-27T04:38:22.545Z,73.21
2022-12-27T04:41:09.408Z,73.98
2022-12-27T04:43:55.736Z,74.57
2022-12-27T04:46:44.655Z,75.23
2022-12-27T04:49:42.596Z,75.37
2022-12-27T04:52:41.502Z,75.18
2022-12-27T04:55:22.567Z,77.09
2022-12-27T04:57:52.658Z,77.79
2022-12-27T05:00:41.156Z,78.69
2022-12-27T05:03:16.526Z,79.66
2022-12-27T05:05:45.387Z,80.06
2022-12-27T05:08:33.754Z,80.88
2022-12-27T05:11:20.043Z,81.12
2022-12-27T05:13:59.970Z,81.95
2022-12-27T05:16:40.008Z,81.97
2022-12-27T05:19:11.415Z,81.81
2022-12-27T05:22:01.623Z,82.63
2022-12-27T05:24:50.851Z,82.92
2022-12-27T05:27:19.540Z,83.25
2022-12-27T05:29:47.686Z,84.25
2022-12-27T05:32:15.311Z,84.38
2022-12-27T05:34:43.298Z,84.83
2022-12-27T05:37:10.872Z,85.40
2022-12-27T05:39:38.920Z,85.37
2022-12-27T05:42:06.767Z,84.96
2022-12-27T05:44:34.635Z,85.40
2022-12-27T05:47:02.326Z,84.78
2022-12-27T05:49:30.340Z,84.28
2022-12-27T05:51:57.995Z,84.39
2022-12-27T05:54:25.919Z,84.31
2022-12-27T05:56:53.524Z,84.06
2022-12-27T05:59:21.508Z,85.19
2022-12-27T06:01:49.221Z,85.78
2022-12-27T06:04:17.262Z,86.40
2022-12-27T06:06:44.907Z,85.87
2022-12-27T06:09:12.942Z,86.35
2022-12-27T06:11:40.449Z,86.07
2022-12-27T06:14:08.306Z,86.39
2022-12-27T06:16:37.464Z,86.47
2022-12-27T06:19:05.254Z,85.93
2022-12-27T06:21:33.016Z,86.57
2022-12-27T06:24:00.945Z,85.78
2022-12-27T06:26:30.194Z,86.50
2022-12-27T06:28:58.973Z,86.52
2022-12-27T06:31:27.420Z,87.06
2022-12-27T06:33:56.245Z,87.33
2022-12-27T06:36:30.973Z,87.07
2022-12-27T06:39:00.410Z,86.33
2022-12-27T06:41:28.006Z,86.64
2022-12-27T06:43:58.185Z,85.89
2022-12-27T06:46:26.039Z,85.78
2022-12-27T06:48:53.960Z,86.24
2022-12-27T06:51:21.896Z,86.47
2022-12-27T06:53:50.300Z,86.62
2022-12-27T06:56:21.899Z,87.07
2022-12-27T06:58:51.331Z,87.80
2022-12-27T07:01:25.380Z,88.62
2022-12-27T07:03:56.463Z,88.76
2022-12-27T07:06:26.163Z,89.03
2022-12-27T07:08:56.749Z,90.10
2022-12-27T07:11:25.307Z,89.67
2022-12-27T07:13:55.887Z,90.73
2022-12-27T07:16:27.601Z,90.68
2022-12-27T07:18:58.650Z,90.33
2022-12-27T07:21:29.238Z,89.87
2022-12-27T07:23:57.844Z,90.40
2022-12-27T07:26:30.073Z,90.55
2022-12-27T07:29:01.056Z,89.87
2022-12-27T07:31:32.751Z,90.36
2022-12-27T07:34:03.862Z,89.90
2022-12-27T07:36:37.134Z,91.27
2022-12-27T07:39:07.182Z,91.38
2022-12-27T07:41:35.888Z,91.27
2022-12-27T07:44:04.212Z,92.17
2022-12-27T07:46:31.896Z,92.58
2022-12-27T07:49:00.507Z,92.19
2022-12-27T07:51:29.759Z,91.56
2022-12-27T07:53:57.627Z,91.80
2022-12-27T07:56:27.739Z,92.46
2022-12-27T07:58:58.657Z,92.47
2022-12-27T08:01:30.262Z,93.89
2022-12-27T08:03:57.922Z,94.78
2022-12-27T08:06:30.550Z,96.25
2022-12-27T08:09:03.716Z,96.02
2022-12-27T08:11:31.724Z,94.83
2022-12-27T08:14:00.088Z,94.52
2022-12-27T08:16:28.156Z,96.71
2022-12-27T08:18:56.338Z,95.25
2022-12-27T08:21:24.270Z,94.33
2022-12-27T08:23:52.210Z,93.90
2022-12-27T08:26:21.356Z,94.39
2022-12-27T08:28:49.019Z,95.88
2022-12-27T08:31:16.998Z,94.35
2022-12-27T08:33:44.928Z,93.65
2022-12-27T08:36:54.048Z,93.20
2022-12-27T08:39:01.062Z,92.15
2022-12-27T08:41:29.011Z,92.68
2022-12-27T08:43:56.572Z,88.79
2022-12-27T08:46:24.550Z,90.09
2022-12-27T08:48:52.227Z,90.86
2022-12-27T08:51:31.361Z,88.87
2022-12-27T08:54:00.629Z,89.18
2022-12-27T08:56:28.540Z,91.68
2022-12-27T08:58:56.051Z,91.03
2022-12-27T09:01:25.593Z,89.08
2022-12-27T09:03:53.213Z,89.80
2022-12-27T09:06:23.991Z,89.85
2022-12-27T09:08:52.758Z,89.18
2022-12-27T09:11:27.868Z,88.72
2022-12-27T09:13:58.020Z,88.72
2022-12-27T09:16:28.646Z,88.50
2022-12-27T09:18:58.834Z,87.05
2022-12-27T09:21:30.361Z,88.58
2022-12-27T09:23:58.308Z,89.81
2022-12-27T09:26:30.142Z,90.94
2022-12-27T09:28:59.619Z,91.22
2022-12-27T09:31:28.157Z,91.84
2022-12-27T09:33:56.834Z,92.69
2022-12-27T09:36:28.305Z,91.12
2022-12-27T09:38:58.588Z,91.56
2022-12-27T09:44:56.810Z,92.55
2022-12-27T09:47:39.491Z,92.08
2022-12-27T09:50:20.855Z,92.67
2022-12-27T09:53:10.775Z,92.56
2022-12-27T09:55:47.258Z,92.38
2022-12-27T09:58:47.004Z,91.05
2022-12-27T10:01:24.548Z,91.91
2022-12-27T10:03:53.317Z,92.62
2022-12-27T10:06:51.057Z,92.85
2022-12-27T10:09:45.720Z,93.83
2022-12-27T10:12:32.043Z,95.60
2022-12-27T10:15:49.408Z,96.76
2022-12-27T10:18:28.952Z,97.60
2022-12-27T10:21:17.058Z,98.04
2022-12-27T10:23:52.841Z,97.83
2022-12-27T10:26:21.839Z,97.39
2022-12-27T10:29:24.092Z,98.41
2022-12-27T10:31:52.932Z,98.21
2022-12-27T10:34:24.866Z,97.17
2022-12-27T10:36:53.532Z,96.79
2022-12-27T10:39:28.658Z,97.41
2022-12-27T10:42:37.343Z,97.21
2022-12-27T10:45:36.254Z,97.84
2022-12-27T10:48:32.156Z,98.06
2022-12-27T10:51:11.398Z,98.39
2022-12-27T10:54:01.697Z,98.15
2022-12-27T10:56:34.412Z,98.46
2022-12-27T10:59:13.503Z,97.62
2022-12-27T11:01:41.339Z,97.14
2022-12-27T11:04:19.851Z,97.08
2022-12-27T11:07:14.098Z,96.16
2022-12-27T11:09:50.215Z,96.31
2022-12-27T11:12:26.027Z,96.53
2022-12-27T11:15:02.960Z,96.70
2022-12-27T11:17:42.208Z,98.23
2022-12-27T11:20:15.976Z,99.47
2022-12-27T11:23:09.450Z,100.00
2022-12-27T11:25:58.785Z,100.00
2022-12-27T11:28:26.195Z,100.00
2022-12-27T11:31:02.396Z,100.00
2022-12-27T11:33:47.374Z,100.00
2022-12-27T11:36:28.570Z,100.00
2022-12-27T11:38:56.911Z,100.00
2022-12-27T11:41:42.781Z,100.00
2022-12-27T11:44:19.190Z,100.00
2022-12-27T11:47:03.614Z,100.00
2022-12-27T11:49:46.546Z,100.00
2022-12-27T11:53:12.654Z,100.00
2022-12-27T11:56:19.633Z,100.00
2022-12-27T11:59:19.332Z,100.00
2022-12-27T12:02:14.364Z,100.00
2022-12-27T12:05:14.741Z,100.00
2022-12-27T12:08:05.881Z,100.00
2022-12-27T12:11:03.042Z,100.00
2022-12-27T12:14:43.713Z,100.00
2022-12-27T12:17:55.697Z,100.00
2022-12-27T12:21:02.590Z,100.00
2022-12-27T12:24:04.410Z,100.00
2022-12-27T12:27:09.988Z,100.00
2022-12-27T12:30:12.837Z,100.00
2022-12-27T12:33:07.820Z,100.00
2022-12-27T12:35:59.213Z,100.00
2022-12-27T12:38:56.506Z,100.00
2022-12-27T12:41:44.683Z,100.00
2022-12-27T12:44:23.484Z,100.00
2022-12-27T12:47:52.243Z,100.00
2022-12-27T12:50:53.578Z,100.00
2022-12-27T12:54:07.573Z,100.00
2022-12-27T12:56:49.784Z,100.00
2022-12-27T12:59:41.355Z,100.00
2022-12-27T13:02:51.909Z,100.00
2022-12-27T13:05:26.003Z,100.00
2022-12-27T13:09:04.275Z,100.00
2022-12-27T13:11:41.212Z,100.00
2022-12-27T13:14:31.526Z,100.00
2022-12-27T13:17:15.657Z,100.00
2022-12-27T13:20:22.716Z,100.00
2022-12-27T13:23:28.471Z,100.00
2022-12-27T13:26:21.512Z,100.00
2022-12-27T13:29:29.171Z,100.00
2022-12-27T13:32:27.899Z,99.98
2022-12-27T13:35:20.572Z,100.00
2022-12-27T13:38:26.756Z,100.00
2022-12-27T13:41:11.260Z,100.00
2022-12-27T13:44:22.341Z,96.80
2022-12-27T13:47:16.141Z,96.02
2022-12-27T13:50:01.888Z,95.72
2022-12-27T13:52:59.994Z,95.81
2022-12-27T13:56:27.687Z,94.36
2022-12-27T13:59:31.433Z,93.42
2022-12-27T14:02:37.541Z,92.51
2022-12-27T14:05:38.040Z,90.45
2022-12-27T14:08:46.469Z,87.68
2022-12-27T14:11:43.407Z,87.78
2022-12-27T14:14:17.177Z,86.32
2022-12-27T14:17:08.468Z,85.71
2022-12-27T14:20:11.144Z,85.36
2022-12-27T14:23:08.713Z,83.34
2022-12-27T14:26:18.385Z,82.37
2022-12-27T14:29:22.872Z,82.09
2022-12-27T14:32:14.141Z,81.73
2022-12-27T14:35:02.176Z,80.89
2022-12-27T14:37:59.810Z,79.37
2022-12-27T14:41:08.546Z,77.14
2022-12-27T14:44:41.856Z,77.61
2022-12-27T14:47:34.835Z,76.50
2022-12-27T14:50:42.055Z,76.23
2022-12-27T14:53:52.629Z,75.52
2022-12-27T14:56:48.439Z,73.30
2022-12-27T14:59:52.974Z,72.28
2022-12-27T15:02:41.988Z,72.40
2022-12-27T15:05:43.483Z,70.76
2022-12-27T15:08:58.734Z,70.15
2022-12-27T15:11:49.199Z,70.31
2022-12-27T15:15:19.520Z,70.22
2022-12-27T15:18:09.831Z,70.09
2022-12-27T15:21:08.774Z,69.10
2022-12-27T15:23:46.373Z,69.49
2022-12-27T15:26:46.828Z,69.29
2022-12-27T15:29:32.091Z,68.94
2022-12-27T15:32:16.783Z,69.69
2022-12-27T15:35:24.619Z,68.28
2022-12-27T15:38:18.146Z,67.92
2022-12-27T15:41:37.184Z,67.47
2022-12-27T15:44:24.642Z,67.27
2022-12-27T15:47:15.973Z,67.59
2022-12-27T15:50:24.692Z,67.18
2022-12-27T15:53:45.326Z,67.46
2022-12-27T15:56:21.198Z,67.87
2022-12-27T15:59:37.736Z,67.58
2022-12-27T16:02:17.174Z,67.89
2022-12-27T16:05:10.659Z,67.81
2022-12-27T16:07:47.446Z,68.12
2022-12-27T16:10:42.544Z,67.97
2022-12-27T16:13:10.565Z,68.81
2022-12-27T16:15:53.749Z,68.56
2022-12-27T16:18:24.017Z,67.93
2022-12-27T16:20:59.574Z,67.17
2022-12-27T16:23:48.074Z,67.51
2022-12-27T16:26:15.854Z,66.28
2022-12-27T16:29:05.340Z,65.60
2022-12-27T16:31:52.301Z,64.84
2022-12-27T16:34:30.624Z,63.23
2022-12-27T16:37:00.703Z,63.05
2022-12-27T16:39:49.935Z,62.39
2022-12-27T16:42:39.190Z,60.38
2022-12-27T16:45:39.373Z,59.42
2022-12-27T16:48:36.928Z,56.57
2022-12-27T16:51:16.551Z,56.61
2022-12-27T16:53:44.279Z,56.44
2022-12-27T16:56:21.432Z,56.25
2022-12-27T16:58:49.712Z,56.24
2022-12-27T17:01:26.286Z,55.55
2022-12-27T17:03:55.960Z,54.83
2022-12-27T17:06:32.343Z,54.90
2022-12-27T17:09:09.932Z,55.08
2022-12-27T17:12:01.938Z,55.66
2022-12-27T17:14:37.131Z,55.13
2022-12-27T17:17:16.612Z,56.13
2022-12-27T17:20:07.658Z,57.38
2022-12-27T17:22:39.494Z,57.25
2022-12-27T17:25:14.333Z,57.41
2022-12-27T17:28:17.269Z,58.52
2022-12-27T17:31:06.059Z,58.46
2022-12-27T17:33:38.186Z,58.78
2022-12-27T17:37:03.847Z,59.06
2022-12-27T17:39:59.249Z,60.42
2022-12-27T17:43:07.143Z,60.36
2022-12-27T17:46:24.819Z,60.21
2022-12-27T17:48:56.103Z,60.02
2022-12-27T17:51:30.562Z,59.62
2022-12-27T17:54:17.213Z,59.87
2022-12-27T17:57:05.794Z,60.67
2022-12-27T17:59:35.347Z,61.30
2022-12-27T18:02:32.755Z,61.27
2022-12-27T18:05:06.362Z,61.64
2022-12-27T18:07:35.389Z,62.04
2022-12-27T18:10:25.831Z,62.61
2022-12-27T18:13:01.022Z,62.83
2022-12-27T18:15:34.242Z,63.30
2022-12-27T18:18:08.529Z,62.75
2022-12-27T18:20:40.813Z,62.90
2022-12-27T18:23:27.823Z,62.58
2022-12-27T18:26:17.308Z,63.07
2022-12-27T18:28:45.039Z,62.24
2022-12-27T18:31:26.413Z,63.01
2022-12-27T18:34:08.122Z,62.47
2022-12-27T18:36:48.981Z,63.90
2022-12-27T18:39:33.876Z,65.63
2022-12-27T18:42:35.550Z,67.36
2022-12-27T18:45:08.610Z,67.71
2022-12-27T18:47:45.889Z,67.99
2022-12-27T18:50:21.832Z,67.19
2022-12-27T18:53:20.910Z,67.64
2022-12-27T18:56:19.116Z,66.80
2022-12-27T18:59:01.061Z,65.77
2022-12-27T19:01:55.140Z,66.30
2022-12-27T19:04:33.620Z,66.59
2022-12-27T19:07:12.634Z,67.01
2022-12-27T19:09:51.052Z,66.91
2022-12-27T19:12:37.178Z,65.89
2022-12-27T19:15:24.940Z,65.67
2022-12-27T19:18:03.760Z,65.50
2022-12-27T19:20:36.946Z,62.13
2022-12-27T19:23:24.984Z,62.37
2022-12-27T19:26:20.793Z,61.71
2022-12-27T19:29:14.571Z,61.73
2022-12-27T19:31:51.184Z,61.69
2022-12-27T19:34:20.813Z,61.46
2022-12-27T19:36:49.615Z,61.40
2022-12-27T19:39:36.962Z,61.33
2022-12-27T19:42:08.410Z,61.57
2022-12-27T19:44:37.150Z,60.67
2022-12-27T19:47:05.106Z,60.87
2022-12-27T19:49:47.906Z,60.08
2022-12-27T19:52:25.625Z,59.22
2022-12-27T19:55:09.220Z,59.48
2022-12-27T19:57:40.113Z,59.93
2022-12-27T20:00:17.609Z,59.29
2022-12-27T20:02:46.107Z,60.04
2022-12-27T20:05:14.250Z,60.51
2022-12-27T20:07:42.482Z,61.36
2022-12-27T20:10:15.264Z,61.16
2022-12-27T20:12:43.289Z,60.69
2022-12-27T20:15:11.079Z,60.92
2022-12-27T20:17:44.604Z,60.88
2022-12-27T20:20:13.288Z,61.36
2022-12-27T20:22:41.312Z,61.27
2022-12-27T20:25:09.605Z,61.91
2022-12-27T20:27:37.485Z,61.73
2022-12-27T20:30:07.170Z,62.32
2022-12-27T20:32:36.017Z,61.59
2022-12-27T20:35:14.268Z,61.18
2022-12-27T20:37:46.390Z,60.67
2022-12-27T20:40:14.916Z,60.54
2022-12-27T20:42:56.160Z,60.57
2022-12-27T20:45:25.283Z,61.05
2022-12-27T20:47:53.143Z,60.55
2022-12-27T20:50:20.688Z,59.52
2022-12-27T20:52:48.633Z,60.21
2022-12-27T20:55:16.206Z,58.23
2022-12-27T20:57:44.686Z,58.97
2022-12-27T21:00:14.013Z,57.78
2022-12-27T21:02:42.352Z,55.69
2022-12-27T21:05:10.140Z,55.28
2022-12-27T21:07:38.056Z,55.88
2022-12-27T21:10:06.292Z,53.64
2022-12-27T21:12:35.481Z,53.76
2022-12-27T21:15:04.890Z,53.69
2022-12-27T21:17:32.833Z,52.32
2022-12-27T21:20:00.373Z,52.24
2022-12-27T21:22:28.455Z,51.54
2022-12-27T21:24:56.004Z,51.62
2022-12-27T21:27:24.121Z,50.17
2022-12-27T21:29:51.781Z,50.93
2022-12-27T21:32:19.748Z,51.28
2022-12-27T21:34:47.994Z,51.70
2022-12-27T21:37:16.191Z,50.97
2022-12-27T21:39:43.807Z,51.70
2022-12-27T21:42:12.456Z,50.91
2022-12-27T21:44:40.021Z,50.70
2022-12-27T21:47:07.947Z,51.37
2022-12-27T21:49:36.620Z,51.15
2022-12-27T21:52:04.861Z,50.40
2022-12-27T21:54:32.618Z,50.68
2022-12-27T21:57:00.593Z,50.57
2022-12-27T21:59:28.352Z,50.44
2022-12-27T22:01:56.681Z,50.38
2022-12-27T22:04:24.348Z,50.34
2022-12-27T22:06:52.257Z,50.06
2022-12-27T22:09:19.960Z,50.41
2022-12-27T22:11:48.209Z,49.98
2022-12-27T22:14:16.165Z,49.60
2022-12-27T22:16:44.109Z,50.49
2022-12-27T22:19:13.270Z,50.46
2022-12-27T22:21:42.167Z,49.97
2022-12-27T22:24:17.256Z,50.13
2022-12-27T22:26:45.457Z,51.27
2022-12-27T22:29:13.169Z,50.98
2022-12-27T22:31:42.898Z,50.56
2022-12-27T22:34:10.461Z,51.05
2022-12-27T22:36:38.453Z,50.81
2022-12-27T22:39:06.187Z,51.05
2022-12-27T22:41:36.474Z,52.21
2022-12-27T22:44:10.978Z,51.20
2022-12-27T22:47:06.793Z,52.10
2022-12-27T22:49:26.774Z,52.03
2022-12-27T22:51:54.633Z,51.46
2022-12-27T22:55:03.962Z,51.59
2022-12-27T22:57:10.423Z,51.34
2022-12-27T22:59:38.002Z,51.19
2022-12-27T23:02:05.956Z,52.17
2022-12-27T23:04:33.802Z,51.75
2022-12-27T23:07:02.295Z,52.31
2022-12-27T23:09:30.224Z,51.88
2022-12-27T23:11:58.229Z,52.22
2022-12-27T23:14:26.054Z,52.66
2022-12-27T23:16:53.909Z,52.97
2022-12-27T23:19:24.445Z,53.17
2022-12-27T23:21:52.554Z,53.12
2022-12-27T23:24:20.195Z,53.49
2022-12-27T23:26:48.156Z,54.31
2022-12-27T23:29:15.912Z,54.08
2022-12-27T23:31:55.217Z,54.75
2022-12-27T23:34:28.097Z,54.71
2022-12-27T23:36:58.998Z,55.18
2022-12-27T23:39:27.343Z,55.08
2022-12-27T23:41:55.728Z,55.59
2022-12-27T23:44:33.160Z,56.12
2022-12-27T23:47:03.584Z,56.59
2022-12-27T23:49:31.330Z,56.37
2022-12-27T23:51:59.318Z,56.88
2022-12-27T23:54:26.886Z,56.71
2022-12-27T23:56:54.799Z,57.16
2022-12-27T23:59:22.410Z,56.52
